createdAt,value
2022-09-26T16:01:43.628Z,13.60
2022-09-26T16:03:34.448Z,12.60
2022-09-26T16:05:12.097Z,10.40
2022-09-26T16:07:23.831Z,13.80
2022-09-26T16:09:12.637Z,13.20
2022-09-26T16:10:44.640Z,12.80
2022-09-26T16:12:16.278Z,10.20
2022-09-26T16:13:49.135Z,15.20
2022-09-26T16:15:28.546Z,13.80
2022-09-26T16:17:22.536Z,13.80
2022-09-26T16:18:59.630Z,14.60
2022-09-26T16:20:31.625Z,11.60
2022-09-26T16:22:28.197Z,13.60
2022-09-26T16:24:01.414Z,12.00
2022-09-26T16:25:48.172Z,11.80
2022-09-26T16:27:24.069Z,10.80
2022-09-26T16:28:57.963Z,10.60
2022-09-26T16:30:33.649Z,13.00
2022-09-26T16:32:05.497Z,12.00
2022-09-26T16:33:40.432Z,12.60
2022-09-26T16:35:24.853Z,11.00
2022-09-26T16:36:59.140Z,11.00
2022-09-26T16:38:35.261Z,13.60
2022-09-26T16:40:18.986Z,14.00
2022-09-26T16:42:16.850Z,9.20
2022-09-26T16:43:55.789Z,11.40
2022-09-26T16:45:27.539Z,12.60
2022-09-26T16:47:01.661Z,7.40
2022-09-26T16:48:36.224Z,12.20
2022-09-26T16:50:31.189Z,11.40
2022-09-26T16:52:30.073Z,10.60
2022-09-26T16:54:16.083Z,9.20
2022-09-26T16:55:47.753Z,11.20
2022-09-26T16:57:21.573Z,11.40
2022-09-26T16:58:56.757Z,13.00
2022-09-26T17:00:52.760Z,9.80
2022-09-26T17:02:25.733Z,10.00
2022-09-26T17:03:57.480Z,11.80
2022-09-26T17:05:29.267Z,12.20
2022-09-26T17:07:09.671Z,13.00
2022-09-26T17:08:41.762Z,12.20
2022-09-26T17:10:13.651Z,10.60
2022-09-26T17:11:48.992Z,10.60
2022-09-26T17:13:25.160Z,8.00
2022-09-26T17:14:56.956Z,7.00
2022-09-26T17:16:29.744Z,12.60
2022-09-26T17:18:02.793Z,14.00
2022-09-26T17:19:38.912Z,21.00
2022-09-26T17:21:12.123Z,21.20
2022-09-26T17:22:43.944Z,20.20
2022-09-26T17:24:18.265Z,13.40
2022-09-26T17:25:54.115Z,14.80
2022-09-26T17:27:28.965Z,14.60
2022-09-26T17:29:00.667Z,13.80
2022-09-26T17:30:32.839Z,13.20
2022-09-26T17:32:09.604Z,14.00
2022-09-26T17:33:42.034Z,13.20
2022-09-26T17:35:17.105Z,13.40
2022-09-26T17:36:50.378Z,14.00
2022-09-26T17:38:22.288Z,14.00
2022-09-26T17:39:55.115Z,12.20
2022-09-26T17:41:28.853Z,16.20
2022-09-26T17:43:01.776Z,17.40
2022-09-26T17:44:37.053Z,20.00
2022-09-26T17:46:15.388Z,21.00
2022-09-26T17:47:47.809Z,24.20
2022-09-26T17:49:25.645Z,26.20
2022-09-26T17:51:00.494Z,27.40
2022-09-26T17:52:32.493Z,29.80
2022-09-26T17:54:07.200Z,33.20
2022-09-26T17:55:39.063Z,33.40
2022-09-26T17:57:12.868Z,33.40
2022-09-26T17:58:44.719Z,35.20
2022-09-26T18:00:18.134Z,38.40
2022-09-26T18:01:55.271Z,43.00
2022-09-26T18:03:28.092Z,43.25
2022-09-26T18:05:03.335Z,45.25
2022-09-26T18:06:36.119Z,49.00
2022-09-26T18:08:19.628Z,50.25
2022-09-26T18:09:52.762Z,49.00
2022-09-26T18:11:24.453Z,52.75
2022-09-26T18:13:14.602Z,55.00
2022-09-26T18:14:47.292Z,57.50
2022-09-26T18:16:19.135Z,59.50
2022-09-26T18:17:51.493Z,61.25
2022-09-26T18:19:23.227Z,61.50
2022-09-26T18:20:55.304Z,66.25
2022-09-26T18:22:27.872Z,67.75
2022-09-26T18:24:00.847Z,64.25
2022-09-26T18:25:32.603Z,70.75
2022-09-26T18:27:07.145Z,74.20
2022-09-26T18:28:39.369Z,76.40
2022-09-26T18:30:11.781Z,79.20
2022-09-26T18:31:45.733Z,79.75
2022-09-26T18:33:19.565Z,84.25
2022-09-26T18:34:51.722Z,80.75
2022-09-26T18:36:23.853Z,90.00
2022-09-26T18:37:55.919Z,92.00
2022-09-26T18:39:28.195Z,81.75
2022-09-26T18:41:00.187Z,87.75
2022-09-26T18:42:32.984Z,87.00
2022-09-26T18:44:04.751Z,92.50
2022-09-26T18:45:36.637Z,95.50
2022-09-26T18:47:14.291Z,101.75
2022-09-26T18:48:46.526Z,93.25
2022-09-26T18:50:19.367Z,100.75
2022-09-26T18:51:51.196Z,100.50
2022-09-26T18:53:23.769Z,97.75
2022-09-26T18:55:14.101Z,102.75
2022-09-26T18:57:04.029Z,102.50
2022-09-26T18:58:35.981Z,171.00
2022-09-26T19:00:08.765Z,181.50
2022-09-26T19:01:43.102Z,162.75
2022-09-26T19:03:15.550Z,132.33
2022-09-26T19:04:47.938Z,117.00
2022-09-26T19:06:20.501Z,122.00
2022-09-26T19:07:52.294Z,105.25
2022-09-26T19:09:24.089Z,96.00
2022-09-26T19:10:56.997Z,102.25
2022-09-26T19:12:28.750Z,104.50
2022-09-26T19:14:06.610Z,102.25
2022-09-26T19:15:38.300Z,95.25
2022-09-26T19:17:10.996Z,95.00
2022-09-26T19:18:43.421Z,99.50
2022-09-26T19:20:15.207Z,98.50
2022-09-26T19:21:48.448Z,101.25
2022-09-26T19:23:21.391Z,95.25
2022-09-26T19:24:54.352Z,99.00
2022-09-26T19:26:38.025Z,95.00
2022-09-26T19:28:13.333Z,96.25
2022-09-26T19:29:47.778Z,96.25
2022-09-26T19:31:19.566Z,96.50
2022-09-26T19:32:54.804Z,104.75
2022-09-26T19:34:30.464Z,98.00
2022-09-26T19:36:04.706Z,104.75
2022-09-26T19:37:36.934Z,105.25
2022-09-26T19:39:14.871Z,101.00
2022-09-26T19:40:49.171Z,99.25
2022-09-26T19:42:22.198Z,105.00
2022-09-26T19:43:53.987Z,108.00
2022-09-26T19:45:25.909Z,99.50
2022-09-26T19:46:59.990Z,96.75
2022-09-26T19:48:38.510Z,228.33
2022-09-26T19:50:16.797Z,280.40
2022-09-26T19:51:49.840Z,248.25
2022-09-26T19:53:22.535Z,214.25
2022-09-26T19:54:54.341Z,173.25
2022-09-26T19:56:26.642Z,148.67
2022-09-26T19:58:12.756Z,147.33
2022-09-26T19:59:44.994Z,165.25
2022-09-26T20:01:19.033Z,247.20
2022-09-26T20:02:51.483Z,174.00
2022-09-26T20:04:23.556Z,156.67
2022-09-26T20:05:55.940Z,145.33
2022-09-26T20:07:27.716Z,145.33
2022-09-26T20:09:03.704Z,139.33
2022-09-26T20:10:36.275Z,142.00
2022-09-26T20:12:10.585Z,140.00
2022-09-26T20:14:00.548Z,138.33
2022-09-26T20:15:32.216Z,139.67
2022-09-26T20:17:21.797Z,150.33
2022-09-26T20:18:55.720Z,127.67
2022-09-26T20:20:27.818Z,132.33
2022-09-26T20:22:01.840Z,135.33
2022-09-26T20:23:33.570Z,135.00
2022-09-26T20:25:05.558Z,135.33
2022-09-26T20:26:37.306Z,137.00
2022-09-26T20:28:10.527Z,123.75
2022-09-26T20:30:00.380Z,129.50
2022-09-26T20:31:32.367Z,124.67
2022-09-26T20:33:04.178Z,129.67
2022-09-26T20:34:38.224Z,126.67
2022-09-26T20:36:10.166Z,134.00
2022-09-26T20:37:41.964Z,129.75
2022-09-26T20:39:24.397Z,132.67
2022-09-26T20:41:16.342Z,136.33
2022-09-26T20:42:49.172Z,131.00
2022-09-26T20:44:27.343Z,132.67
2022-09-26T20:45:59.236Z,124.25
2022-09-26T20:47:30.988Z,120.50
2022-09-26T20:49:03.774Z,131.00
2022-09-26T20:50:38.477Z,124.00
2022-09-26T20:52:18.338Z,128.00
2022-09-26T20:53:50.127Z,119.75
2022-09-26T20:55:21.958Z,127.50
2022-09-26T20:56:54.608Z,118.50
2022-09-26T20:58:26.333Z,127.25
2022-09-26T20:59:58.076Z,119.75
2022-09-26T21:01:29.967Z,118.75
2022-09-26T21:03:01.863Z,113.50
2022-09-26T21:04:33.648Z,112.75
2022-09-26T21:06:05.544Z,116.25
2022-09-26T21:07:37.292Z,111.75
2022-09-26T21:09:18.849Z,113.00
2022-09-26T21:10:50.539Z,222.25
2022-09-26T21:12:22.236Z,239.40
2022-09-26T21:13:53.921Z,158.00
2022-09-26T21:15:30.207Z,136.00
2022-09-26T21:17:01.946Z,118.00
2022-09-26T21:18:33.664Z,131.50
2022-09-26T21:20:05.889Z,110.25
2022-09-26T21:21:57.235Z,109.75
2022-09-26T21:23:42.055Z,115.00
2022-09-26T21:25:18.122Z,105.25
2022-09-26T21:26:49.841Z,114.25
2022-09-26T21:28:29.076Z,112.50
2022-09-26T21:30:00.871Z,114.25
2022-09-26T21:31:33.549Z,110.00
2022-09-26T21:33:05.259Z,111.25
2022-09-26T21:34:38.771Z,107.75
2022-09-26T21:36:10.474Z,110.75
2022-09-26T21:37:42.922Z,104.00
2022-09-26T21:39:16.329Z,134.50
2022-09-26T21:40:50.264Z,182.00
2022-09-26T21:42:22.054Z,174.75
2022-09-26T21:44:00.405Z,138.67
2022-09-26T21:45:32.132Z,127.25
2022-09-26T21:47:03.822Z,124.75
2022-09-26T21:48:35.631Z,122.25
2022-09-26T21:50:08.584Z,122.50
2022-09-26T21:51:41.819Z,124.75
2022-09-26T21:53:16.735Z,120.00
2022-09-26T21:54:48.995Z,121.00
2022-09-26T21:56:24.399Z,113.75
2022-09-26T21:57:56.112Z,114.25
2022-09-26T21:59:27.826Z,119.25
2022-09-26T22:00:59.568Z,113.75
2022-09-26T22:02:31.274Z,119.50
2022-09-26T22:04:02.993Z,107.25
2022-09-26T22:05:34.720Z,106.50
2022-09-26T22:07:06.508Z,107.50
2022-09-26T22:08:39.340Z,108.50
2022-09-26T22:10:11.083Z,106.75
2022-09-26T22:11:42.777Z,107.25
2022-09-26T22:13:14.577Z,108.75
2022-09-26T22:14:46.349Z,95.00
2022-09-26T22:16:18.173Z,98.75
2022-09-26T22:17:50.020Z,101.00
2022-09-26T22:19:21.871Z,96.75
2022-09-26T22:20:56.433Z,98.25
2022-09-26T22:22:28.192Z,95.50
2022-09-26T22:24:00.146Z,96.50
2022-09-26T22:25:32.054Z,92.25
2022-09-26T22:27:04.632Z,94.50
2022-09-26T22:28:36.393Z,97.25
2022-09-26T22:30:09.282Z,89.75
2022-09-26T22:31:41.645Z,91.25
2022-09-26T22:33:13.553Z,93.75
2022-09-26T22:34:45.296Z,99.25
